createdAt,value
2023-01-19T00:00:12.359Z,957.47
2023-01-19T00:01:11.053Z,957.48
2023-01-19T00:02:11.199Z,957.46
2023-01-19T00:03:11.030Z,957.49
2023-01-19T00:04:11.101Z,957.45
2023-01-19T00:05:10.991Z,957.51
2023-01-19T00:06:11.214Z,957.52
2023-01-19T00:07:10.990Z,957.51
2023-01-19T00:08:11.076Z,957.55
2023-01-19T00:09:10.950Z,957.53
2023-01-19T00:10:11.030Z,957.55
2023-01-19T00:11:10.950Z,957.53
2023-01-19T00:12:10.973Z,957.52
2023-01-19T00:13:10.930Z,957.50
2023-01-19T00:14:11.053Z,957.49
2023-01-19T00:15:11.091Z,957.51
2023-01-19T00:16:10.899Z,957.47
2023-01-19T00:17:10.939Z,957.53
2023-01-19T00:18:11.265Z,957.51
2023-01-19T00:19:10.916Z,957.51
2023-01-19T00:20:10.982Z,957.51
2023-01-19T00:21:10.790Z,957.55
2023-01-19T00:22:11.019Z,957.51
2023-01-19T00:23:10.799Z,957.57
2023-01-19T00:24:10.963Z,957.54
2023-01-19T00:25:10.752Z,957.58
2023-01-19T00:26:10.927Z,957.59
2023-01-19T00:27:10.724Z,957.61
2023-01-19T00:28:10.792Z,957.62
2023-01-19T00:29:10.707Z,957.61
2023-01-19T00:30:10.892Z,957.65
2023-01-19T00:31:10.697Z,957.65
2023-01-19T00:32:10.912Z,957.62
2023-01-19T00:33:10.673Z,957.61
2023-01-19T00:34:10.788Z,957.65
2023-01-19T00:35:10.624Z,957.68
2023-01-19T00:36:10.689Z,957.67
2023-01-19T00:37:10.621Z,957.65
2023-01-19T00:38:10.697Z,957.68
2023-01-19T00:39:10.610Z,957.67
2023-01-19T00:40:10.723Z,957.72
2023-01-19T00:41:10.553Z,957.72
2023-01-19T00:42:10.639Z,957.69
2023-01-19T00:43:10.524Z,957.70
2023-01-19T00:44:10.588Z,957.73
2023-01-19T00:45:10.496Z,957.68
2023-01-19T00:46:10.622Z,957.72
2023-01-19T00:47:10.491Z,957.73
2023-01-19T00:48:10.583Z,957.73
2023-01-19T00:49:10.492Z,957.71
2023-01-19T00:50:10.500Z,957.67
2023-01-19T00:51:10.523Z,957.68
2023-01-19T00:52:10.428Z,957.67
2023-01-19T00:53:10.539Z,957.70
2023-01-19T00:54:10.490Z,957.67
2023-01-19T00:55:10.598Z,957.66
2023-01-19T00:56:10.334Z,957.71
2023-01-19T00:57:10.539Z,957.69
2023-01-19T00:58:10.322Z,957.71
2023-01-19T00:59:10.558Z,957.69
2023-01-19T01:00:10.319Z,957.68
2023-01-19T01:01:10.585Z,957.68
2023-01-19T01:02:10.388Z,957.74
2023-01-19T01:03:10.498Z,957.74
2023-01-19T01:04:10.253Z,957.73
2023-01-19T01:05:10.431Z,957.73
2023-01-19T01:06:10.259Z,957.76
2023-01-19T01:07:10.476Z,957.78
2023-01-19T01:08:10.221Z,957.75
2023-01-19T01:09:10.386Z,957.77
2023-01-19T01:10:10.168Z,957.77
2023-01-19T01:11:10.249Z,957.79
2023-01-19T01:12:10.208Z,957.80
2023-01-19T01:13:20.800Z,957.76
2023-01-19T01:14:10.150Z,957.80
2023-01-19T01:15:10.272Z,957.80
2023-01-19T01:16:10.207Z,957.80
2023-01-19T01:17:10.242Z,957.80
2023-01-19T01:18:10.067Z,957.81
2023-01-19T01:19:10.301Z,957.82
2023-01-19T01:20:10.044Z,957.87
2023-01-19T01:21:10.219Z,957.84
2023-01-19T01:22:10.153Z,957.87
2023-01-19T01:23:10.035Z,957.88
2023-01-19T01:24:10.272Z,957.85
2023-01-19T01:25:10.019Z,957.85
2023-01-19T01:26:10.244Z,957.87
2023-01-19T01:27:10.106Z,957.85
2023-01-19T01:28:09.993Z,957.87
2023-01-19T01:29:10.106Z,957.83
2023-01-19T01:30:09.958Z,957.81
2023-01-19T01:31:10.079Z,957.88
2023-01-19T01:32:09.895Z,957.83
2023-01-19T01:33:10.157Z,957.79
2023-01-19T01:34:09.868Z,957.86
2023-01-19T01:35:10.007Z,957.83
2023-01-19T01:36:09.852Z,957.81
2023-01-19T01:37:10.136Z,957.80
2023-01-19T01:38:09.828Z,957.84
2023-01-19T01:39:09.980Z,957.84
2023-01-19T01:40:09.798Z,957.88
2023-01-19T01:41:09.956Z,957.87
2023-01-19T01:42:09.781Z,957.90
2023-01-19T01:43:09.957Z,957.86
2023-01-19T01:44:09.756Z,957.89
2023-01-19T01:45:09.915Z,957.90
2023-01-19T01:46:09.818Z,957.90
2023-01-19T01:47:09.992Z,957.92
2023-01-19T01:48:09.699Z,957.91
2023-01-19T01:49:09.953Z,957.92
2023-01-19T01:50:09.727Z,957.89
2023-01-19T01:51:09.944Z,957.92
2023-01-19T01:52:09.683Z,957.95
2023-01-19T01:53:10.042Z,957.91
2023-01-19T01:54:09.681Z,957.92
2023-01-19T01:55:09.846Z,957.93
2023-01-19T01:56:09.604Z,957.92
2023-01-19T01:57:09.872Z,957.96
2023-01-19T01:58:09.715Z,957.93
2023-01-19T01:59:09.585Z,957.98
2023-01-19T02:00:09.781Z,958.00
2023-01-19T02:01:09.727Z,958.01
2023-01-19T02:02:09.765Z,958.02
2023-01-19T02:03:09.596Z,957.97
2023-01-19T02:04:09.798Z,957.99
2023-01-19T02:05:09.559Z,957.98
2023-01-19T02:06:09.603Z,957.99
2023-01-19T02:07:09.489Z,957.98
2023-01-19T02:08:09.709Z,957.98
2023-01-19T02:09:09.471Z,957.96
2023-01-19T02:10:09.609Z,957.95
2023-01-19T02:11:09.476Z,957.94
2023-01-19T02:12:09.639Z,957.95
2023-01-19T02:13:09.420Z,957.93
2023-01-19T02:14:09.668Z,957.95
2023-01-19T02:15:09.450Z,957.96
2023-01-19T02:16:09.450Z,957.93
2023-01-19T02:17:09.432Z,957.95
2023-01-19T02:18:09.563Z,957.96
2023-01-19T02:19:09.651Z,957.91
2023-01-19T02:20:09.312Z,957.97
2023-01-19T02:21:09.483Z,957.98
2023-01-19T02:22:09.298Z,957.97
2023-01-19T02:23:09.413Z,957.98
2023-01-19T02:24:09.281Z,957.98
2023-01-19T02:25:09.425Z,957.98
2023-01-19T02:26:09.284Z,958.01
2023-01-19T02:27:09.457Z,957.98
2023-01-19T02:28:09.241Z,957.97
2023-01-19T02:29:09.363Z,957.99
2023-01-19T02:30:09.194Z,957.97
2023-01-19T02:31:09.373Z,958.01
2023-01-19T02:32:09.192Z,957.99
2023-01-19T02:33:09.402Z,958.00
2023-01-19T02:34:09.139Z,958.01
2023-01-19T02:35:09.300Z,958.00
2023-01-19T02:36:09.135Z,958.00
2023-01-19T02:37:09.259Z,958.02
2023-01-19T02:38:09.111Z,958.04
2023-01-19T02:39:09.234Z,958.06
2023-01-19T02:40:09.069Z,958.07
2023-01-19T02:41:09.234Z,958.04
2023-01-19T02:42:09.080Z,958.03
2023-01-19T02:43:09.266Z,958.05
2023-01-19T02:44:09.058Z,958.00
2023-01-19T02:45:09.253Z,958.04
2023-01-19T02:46:09.089Z,958.02
2023-01-19T02:47:09.153Z,958.04
2023-01-19T02:48:09.084Z,958.06
2023-01-19T02:49:09.082Z,958.11
2023-01-19T02:50:09.158Z,958.08
2023-01-19T02:51:08.978Z,958.12
2023-01-19T02:52:09.236Z,958.11
2023-01-19T02:53:08.949Z,958.11
2023-01-19T02:54:09.143Z,958.16
2023-01-19T02:55:08.903Z,958.14
2023-01-19T02:56:09.144Z,958.16
2023-01-19T02:57:08.890Z,958.15
2023-01-19T02:58:09.156Z,958.20
2023-01-19T02:59:08.905Z,958.20
2023-01-19T03:00:09.076Z,958.15
2023-01-19T03:01:08.995Z,958.14
2023-01-19T03:02:09.258Z,958.15
2023-01-19T03:03:08.888Z,958.13
2023-01-19T03:04:08.931Z,958.11
2023-01-19T03:05:08.803Z,958.09
2023-01-19T03:06:09.033Z,958.09
2023-01-19T03:07:08.758Z,958.07
2023-01-19T03:08:08.997Z,958.09
2023-01-19T03:09:08.805Z,958.11
2023-01-19T03:10:08.946Z,958.08
2023-01-19T03:11:08.763Z,958.07
2023-01-19T03:12:08.863Z,958.04
2023-01-19T03:13:08.707Z,958.06
2023-01-19T03:14:08.894Z,958.10
2023-01-19T03:15:08.668Z,958.12
2023-01-19T03:16:08.971Z,958.09
2023-01-19T03:17:08.622Z,958.08
2023-01-19T03:18:08.876Z,958.10
2023-01-19T03:19:08.656Z,958.08
2023-01-19T03:20:08.918Z,958.11
2023-01-19T03:21:08.597Z,958.17
2023-01-19T03:22:08.829Z,958.15
2023-01-19T03:23:08.595Z,958.23
2023-01-19T03:24:08.736Z,958.22
2023-01-19T03:25:08.567Z,958.22
2023-01-19T03:26:08.784Z,958.20
2023-01-19T03:27:08.518Z,958.20
2023-01-19T03:28:08.655Z,958.27
2023-01-19T03:29:08.513Z,958.21
2023-01-19T03:30:08.810Z,958.22
2023-01-19T03:31:08.522Z,958.24
2023-01-19T03:32:08.691Z,958.25
2023-01-19T03:33:08.445Z,958.26
2023-01-19T03:34:08.693Z,958.23
2023-01-19T03:35:08.491Z,958.24
2023-01-19T03:36:08.510Z,958.22
2023-01-19T03:37:08.500Z,958.22
2023-01-19T03:38:08.436Z,958.26
2023-01-19T03:39:08.657Z,958.20
2023-01-19T03:40:08.402Z,958.19
2023-01-19T03:41:08.426Z,958.19
2023-01-19T03:42:08.417Z,958.23
2023-01-19T03:43:08.567Z,958.18
2023-01-19T03:44:08.345Z,958.24
2023-01-19T03:45:08.543Z,958.19
2023-01-19T03:46:08.395Z,958.25
2023-01-19T03:47:08.422Z,958.24
2023-01-19T03:48:08.289Z,958.18
2023-01-19T03:49:08.409Z,958.25
2023-01-19T03:50:08.278Z,958.21
2023-01-19T03:51:08.487Z,958.25
2023-01-19T03:52:08.236Z,958.19
2023-01-19T03:53:08.414Z,958.18
2023-01-19T03:54:08.238Z,958.18
2023-01-19T03:55:08.300Z,958.16
2023-01-19T03:56:08.203Z,958.14
2023-01-19T03:57:08.354Z,958.17
2023-01-19T03:58:08.254Z,958.17
2023-01-19T03:59:08.136Z,958.17
2023-01-19T04:00:08.416Z,958.18
2023-01-19T04:01:08.198Z,958.17
2023-01-19T04:02:08.308Z,958.21
2023-01-19T04:03:08.367Z,958.24
2023-01-19T04:04:08.138Z,958.26
2023-01-19T04:05:08.275Z,958.27
2023-01-19T04:06:08.081Z,958.27
2023-01-19T04:07:08.317Z,958.30
2023-01-19T04:08:08.057Z,958.31
2023-01-19T04:09:08.100Z,958.30
2023-01-19T04:10:08.075Z,958.29
2023-01-19T04:11:08.238Z,958.31
2023-01-19T04:12:08.011Z,958.32
2023-01-19T04:13:08.161Z,958.35
2023-01-19T04:14:07.978Z,958.33
2023-01-19T04:15:08.037Z,958.32
2023-01-19T04:16:08.089Z,958.31
2023-01-19T04:17:08.151Z,958.28
2023-01-19T04:18:07.940Z,958.28
2023-01-19T04:19:07.966Z,958.28
2023-01-19T04:20:07.897Z,958.32
2023-01-19T04:21:08.146Z,958.29
2023-01-19T04:22:07.974Z,958.29
2023-01-19T04:23:08.013Z,958.29
2023-01-19T04:24:07.862Z,958.31
2023-01-19T04:25:07.922Z,958.25
2023-01-19T04:26:07.834Z,958.29
2023-01-19T04:27:07.976Z,958.31
2023-01-19T04:28:07.805Z,958.31
2023-01-19T04:29:07.970Z,958.34
2023-01-19T04:30:07.793Z,958.37
2023-01-19T04:31:07.952Z,958.39
2023-01-19T04:32:07.769Z,958.45
2023-01-19T04:33:07.919Z,958.45
2023-01-19T04:34:07.728Z,958.45
2023-01-19T04:35:07.976Z,958.43
2023-01-19T04:36:07.713Z,958.41
2023-01-19T04:37:07.916Z,958.43
2023-01-19T04:38:07.681Z,958.42
2023-01-19T04:39:07.961Z,958.44
2023-01-19T04:40:07.686Z,958.41
2023-01-19T04:41:07.729Z,958.39
2023-01-19T04:42:07.648Z,958.41
2023-01-19T04:43:07.734Z,958.41
2023-01-19T04:44:07.657Z,958.46
2023-01-19T04:45:07.686Z,958.41
2023-01-19T04:46:07.662Z,958.41
2023-01-19T04:47:07.685Z,958.41
2023-01-19T04:48:07.551Z,958.37
2023-01-19T04:49:07.766Z,958.39
2023-01-19T04:50:07.787Z,958.38
2023-01-19T04:51:07.525Z,958.39
2023-01-19T04:52:07.626Z,958.39
2023-01-19T04:53:07.461Z,958.41
2023-01-19T04:54:07.869Z,958.40
2023-01-19T04:55:07.609Z,958.41
2023-01-19T04:56:07.438Z,958.42
2023-01-19T04:57:07.614Z,958.41
2023-01-19T04:58:07.442Z,958.41
2023-01-19T04:59:07.716Z,958.41
2023-01-19T05:00:07.420Z,958.41
2023-01-19T05:01:07.693Z,958.46
2023-01-19T05:02:07.434Z,958.48
2023-01-19T05:03:07.531Z,958.46
2023-01-19T05:04:07.349Z,958.43
2023-01-19T05:05:07.631Z,958.44
2023-01-19T05:06:07.362Z,958.44
2023-01-19T05:07:07.484Z,958.46
2023-01-19T05:09:03.910Z,958.46
2023-01-19T05:10:04.715Z,958.49
2023-01-19T05:11:04.865Z,958.48
2023-01-19T05:12:04.683Z,958.48
2023-01-19T05:13:04.965Z,958.47
2023-01-19T05:14:04.689Z,958.53
2023-01-19T05:15:04.839Z,958.49
2023-01-19T05:16:04.805Z,958.50
2023-01-19T05:17:04.677Z,958.47
2023-01-19T05:18:04.804Z,958.46
2023-01-19T05:19:04.643Z,958.48
2023-01-19T05:20:04.735Z,958.51
2023-01-19T05:21:04.777Z,958.50
2023-01-19T05:22:04.586Z,958.54
2023-01-19T05:23:04.674Z,958.56
2023-01-19T05:24:04.526Z,958.56
2023-01-19T05:25:04.638Z,958.61
2023-01-19T05:26:04.498Z,958.61
2023-01-19T05:27:04.771Z,958.60
2023-01-19T05:28:04.505Z,958.66
2023-01-19T05:29:04.774Z,958.64
2023-01-19T05:30:04.463Z,958.66
2023-01-19T05:31:04.835Z,958.68
2023-01-19T05:32:04.562Z,958.72
2023-01-19T05:33:04.725Z,958.68
2023-01-19T05:34:04.399Z,958.70
2023-01-19T05:35:04.516Z,958.70
2023-01-19T05:36:04.403Z,958.66
2023-01-19T05:37:04.684Z,958.69
2023-01-19T05:38:04.414Z,958.66
2023-01-19T05:39:04.651Z,958.67
2023-01-19T05:40:04.343Z,958.63
2023-01-19T05:41:04.474Z,958.66
2023-01-19T05:42:04.297Z,958.63
2023-01-19T05:43:05.027Z,958.66
2023-01-19T05:44:04.289Z,958.63
2023-01-19T05:45:04.430Z,958.62
2023-01-19T05:46:04.271Z,958.66
2023-01-19T05:47:04.389Z,958.66
2023-01-19T05:48:04.279Z,958.67
2023-01-19T05:49:04.426Z,958.67
2023-01-19T05:50:04.236Z,958.68
2023-01-19T05:51:04.432Z,958.73
2023-01-19T05:52:04.489Z,958.69
2023-01-19T05:53:04.488Z,958.74
2023-01-19T05:54:04.460Z,958.71
2023-01-19T05:55:04.207Z,958.70
2023-01-19T05:56:04.419Z,958.70
2023-01-19T05:57:04.176Z,958.72
2023-01-19T05:58:04.426Z,958.72
2023-01-19T05:59:04.141Z,958.76
2023-01-19T06:00:04.424Z,958.77
2023-01-19T06:01:04.135Z,958.80
2023-01-19T06:02:04.237Z,958.77
2023-01-19T06:03:04.612Z,958.80
2023-01-19T06:04:04.326Z,958.83
2023-01-19T06:05:04.040Z,958.81
2023-01-19T06:06:04.280Z,958.85
2023-01-19T06:07:04.030Z,958.87
2023-01-19T06:08:04.249Z,958.87
2023-01-19T06:09:04.029Z,958.89
2023-01-19T06:10:04.300Z,958.88
2023-01-19T06:11:03.979Z,958.92
2023-01-19T06:12:04.043Z,958.92
2023-01-19T06:13:04.172Z,958.94
2023-01-19T06:14:04.063Z,958.94
2023-01-19T06:15:03.971Z,958.93
2023-01-19T06:16:04.157Z,958.94
2023-01-19T06:17:03.985Z,958.95
2023-01-19T06:18:03.988Z,958.93
2023-01-19T06:19:03.957Z,958.92
2023-01-19T06:20:04.112Z,958.96
2023-01-19T06:21:03.977Z,958.93
2023-01-19T06:22:04.251Z,958.97
2023-01-19T06:23:04.220Z,958.97
2023-01-19T06:24:03.928Z,959.01
2023-01-19T06:25:03.809Z,959.01
2023-01-19T06:26:03.966Z,959.03
2023-01-19T06:27:03.785Z,959.01
2023-01-19T06:28:03.953Z,959.00
2023-01-19T06:29:03.775Z,959.04
2023-01-19T06:30:03.964Z,959.01
2023-01-19T06:31:03.900Z,959.06
2023-01-19T06:32:04.163Z,959.12
2023-01-19T06:33:03.946Z,959.10
2023-01-19T06:34:03.852Z,959.11
2023-01-19T06:35:03.727Z,959.11
2023-01-19T06:36:03.814Z,959.08
2023-01-19T06:37:03.694Z,959.07
2023-01-19T06:38:03.866Z,959.12
2023-01-19T06:39:03.728Z,959.13
2023-01-19T06:40:03.780Z,959.15
2023-01-19T06:41:03.615Z,959.11
2023-01-19T06:42:03.893Z,959.10
2023-01-19T06:43:03.805Z,959.09
2023-01-19T06:44:03.794Z,959.10
2023-01-19T06:45:03.563Z,959.10
2023-01-19T06:46:03.862Z,959.12
2023-01-19T06:47:15.508Z,959.17
2023-01-19T06:48:03.552Z,959.11
2023-01-19T06:49:03.592Z,959.11
2023-01-19T06:50:03.534Z,959.09
2023-01-19T06:51:03.600Z,959.12
2023-01-19T06:52:03.518Z,959.08
2023-01-19T06:53:03.712Z,959.07
2023-01-19T06:54:03.483Z,959.11
2023-01-19T06:55:03.532Z,959.10
2023-01-19T06:56:04.557Z,959.09
2023-01-19T06:57:03.605Z,959.13
2023-01-19T06:58:03.430Z,959.12
2023-01-19T06:59:03.558Z,959.13
2023-01-19T07:00:03.433Z,959.13
2023-01-19T07:01:03.852Z,959.12
2023-01-19T07:02:27.620Z,959.13
2023-01-19T07:03:03.815Z,959.15
2023-01-19T07:04:03.658Z,959.15
2023-01-19T07:05:03.316Z,959.13
2023-01-19T07:06:03.628Z,959.16
2023-01-19T07:07:03.297Z,959.18
2023-01-19T07:08:03.825Z,959.13
2023-01-19T07:09:03.319Z,959.17
2023-01-19T07:10:03.563Z,959.22
2023-01-19T07:11:25.848Z,959.21
2023-01-19T07:12:03.266Z,959.22
2023-01-19T07:13:05.300Z,959.23
2023-01-19T07:14:04.327Z,959.19
2023-01-19T07:15:04.950Z,959.21
2023-01-19T07:16:03.215Z,959.22
2023-01-19T07:17:03.404Z,959.20
2023-01-19T07:18:03.186Z,959.23
2023-01-19T07:19:04.085Z,959.20
2023-01-19T07:20:03.333Z,959.21
2023-01-19T07:21:03.514Z,959.22
2023-01-19T07:22:03.416Z,959.24
2023-01-19T07:23:03.689Z,959.24
2023-01-19T07:24:03.092Z,959.22
2023-01-19T07:25:03.278Z,959.24
2023-01-19T07:26:03.155Z,959.26
2023-01-19T07:27:03.181Z,959.29
2023-01-19T07:28:03.489Z,959.29
2023-01-19T07:29:03.567Z,959.29
2023-01-19T07:30:03.094Z,959.33
2023-01-19T07:31:03.676Z,959.35
2023-01-19T07:32:03.065Z,959.31
2023-01-19T07:33:03.558Z,959.33
2023-01-19T07:34:03.125Z,959.39
2023-01-19T07:35:03.128Z,959.38
2023-01-19T07:36:05.683Z,959.35
2023-01-19T07:37:02.992Z,959.38
2023-01-19T07:38:03.158Z,959.39
2023-01-19T07:39:02.910Z,959.37
2023-01-19T07:40:03.166Z,959.39
2023-01-19T07:41:03.193Z,959.38
2023-01-19T07:42:02.934Z,959.41
2023-01-19T07:43:03.793Z,959.39
2023-01-19T07:44:02.874Z,959.36
2023-01-19T07:45:03.127Z,959.38
2023-01-19T07:46:02.963Z,959.38
2023-01-19T07:47:03.037Z,959.36
2023-01-19T07:48:02.881Z,959.38
2023-01-19T07:49:03.016Z,959.33
2023-01-19T07:50:02.818Z,959.31
2023-01-19T07:51:03.023Z,959.36
2023-01-19T07:52:02.864Z,959.33
2023-01-19T07:53:03.222Z,959.39
2023-01-19T07:54:02.919Z,959.41
2023-01-19T07:55:03.317Z,959.40
2023-01-19T07:56:02.840Z,959.44
2023-01-19T07:57:02.916Z,959.46
2023-01-19T07:58:02.807Z,959.46
2023-01-19T07:59:03.807Z,959.43
2023-01-19T08:00:03.008Z,959.46
2023-01-19T08:01:03.022Z,959.45
2023-01-19T08:02:03.290Z,959.46
2023-01-19T08:03:03.589Z,959.48
2023-01-19T08:04:02.684Z,959.46
2023-01-19T08:05:02.946Z,959.45
2023-01-19T08:06:02.646Z,959.44
2023-01-19T08:07:02.720Z,959.47
2023-01-19T08:08:02.660Z,959.46
2023-01-19T08:09:02.811Z,959.51
2023-01-19T08:10:02.606Z,959.53
2023-01-19T08:11:02.577Z,959.54
2023-01-19T08:12:02.772Z,959.59
2023-01-19T08:13:03.057Z,959.60
2023-01-19T08:14:03.231Z,959.57
2023-01-19T08:15:02.479Z,959.58
2023-01-19T08:16:02.661Z,959.61
2023-01-19T08:17:02.500Z,959.62
2023-01-19T08:18:02.853Z,959.59
2023-01-19T08:19:02.464Z,959.64
2023-01-19T08:20:02.566Z,959.66
2023-01-19T08:21:02.582Z,959.71
2023-01-19T08:22:02.519Z,959.75
2023-01-19T08:23:03.024Z,959.75
2023-01-19T08:24:02.583Z,959.74
2023-01-19T08:25:02.584Z,959.74
2023-01-19T08:26:02.989Z,959.76
2023-01-19T08:27:02.839Z,959.69
2023-01-19T08:28:02.965Z,959.73
2023-01-19T08:29:02.957Z,959.70
2023-01-19T08:30:03.456Z,959.73
2023-01-19T08:31:18.177Z,959.67
2023-01-19T08:32:03.434Z,959.72
2023-01-19T08:33:03.115Z,959.68
2023-01-19T08:34:02.687Z,959.71
2023-01-19T08:35:02.998Z,959.69
2023-01-19T08:36:02.770Z,959.64
2023-01-19T08:37:02.993Z,959.65
2023-01-19T08:38:02.706Z,959.66
2023-01-19T08:39:02.370Z,959.63
2023-01-19T08:40:02.734Z,959.67
2023-01-19T08:41:02.160Z,959.69
2023-01-19T08:42:02.276Z,959.68
2023-01-19T08:43:03.145Z,959.71
2023-01-19T08:44:02.406Z,959.74
2023-01-19T08:45:02.532Z,959.75
2023-01-19T08:46:02.262Z,959.74
2023-01-19T08:47:02.784Z,959.76
2023-01-19T08:48:02.588Z,959.78
2023-01-19T08:49:02.313Z,959.77
2023-01-19T08:50:03.333Z,959.77
2023-01-19T08:51:02.732Z,959.79
2023-01-19T08:52:02.199Z,959.77
2023-01-19T08:53:03.217Z,959.75
2023-01-19T08:54:02.060Z,959.77
2023-01-19T08:55:02.063Z,959.72
2023-01-19T08:56:02.042Z,959.70
2023-01-19T08:57:02.106Z,959.71
2023-01-19T08:58:02.423Z,959.67
2023-01-19T08:59:09.987Z,959.71
2023-01-19T09:00:02.230Z,959.67
2023-01-19T09:01:04.110Z,959.69
2023-01-19T09:02:02.562Z,959.73
2023-01-19T09:03:03.089Z,959.75
2023-01-19T09:04:02.446Z,959.77
2023-01-19T09:05:02.032Z,959.78
2023-01-19T09:06:02.326Z,959.79
2023-01-19T09:07:01.918Z,959.80
2023-01-19T09:08:03.468Z,959.79
2023-01-19T09:09:02.943Z,959.82
2023-01-19T09:10:02.421Z,959.82
2023-01-19T09:11:02.650Z,959.84
2023-01-19T09:12:01.981Z,959.83
2023-01-19T09:13:02.233Z,959.84
2023-01-19T09:14:01.886Z,959.78
2023-01-19T09:15:02.237Z,959.81
2023-01-19T09:16:02.219Z,959.86
2023-01-19T09:17:01.826Z,959.84
2023-01-19T09:18:02.158Z,959.83
2023-01-19T09:19:01.765Z,959.92
2023-01-19T09:20:01.841Z,959.92
2023-01-19T09:21:01.805Z,959.92
2023-01-19T09:22:02.070Z,959.96
2023-01-19T09:23:01.652Z,959.96
2023-01-19T09:24:01.898Z,960.00
2023-01-19T09:25:01.727Z,960.02
2023-01-19T09:26:01.908Z,960.01
2023-01-19T09:27:01.779Z,959.99
2023-01-19T09:28:02.350Z,960.04
2023-01-19T09:29:02.198Z,960.04
2023-01-19T09:30:01.924Z,960.03
2023-01-19T09:31:02.262Z,960.06
2023-01-19T09:32:02.172Z,960.09
2023-01-19T09:33:01.606Z,960.07
2023-01-19T09:34:01.736Z,960.08
2023-01-19T09:35:02.002Z,960.05
2023-01-19T09:36:01.739Z,960.03
2023-01-19T09:37:01.596Z,960.05
2023-01-19T09:38:03.305Z,960.06
2023-01-19T09:39:01.592Z,960.05
2023-01-19T09:40:02.816Z,960.05
2023-01-19T09:41:01.618Z,960.08
2023-01-19T09:42:02.610Z,960.05
2023-01-19T09:43:01.485Z,960.06
2023-01-19T09:44:03.714Z,960.05
2023-01-19T09:45:02.139Z,960.05
2023-01-19T09:46:01.450Z,960.04
2023-01-19T09:47:02.638Z,960.06
2023-01-19T09:48:02.041Z,960.03
2023-01-19T09:49:02.565Z,960.01
2023-01-19T09:50:01.366Z,959.98
2023-01-19T09:51:01.337Z,960.00
2023-01-19T09:52:01.468Z,960.00
2023-01-19T09:53:01.818Z,959.96
2023-01-19T09:54:01.429Z,960.00
2023-01-19T09:55:01.352Z,959.99
2023-01-19T09:56:03.647Z,959.92
2023-01-19T09:57:01.251Z,959.94
2023-01-19T09:58:03.083Z,959.92
2023-01-19T09:59:01.809Z,959.91
2023-01-19T10:00:02.904Z,959.94
2023-01-19T10:01:01.430Z,959.89
2023-01-19T10:02:22.365Z,959.91
2023-01-19T10:03:01.958Z,959.89
2023-01-19T10:04:01.351Z,959.89
2023-01-19T10:05:01.266Z,959.90
2023-01-19T10:06:01.319Z,959.83
2023-01-19T10:07:01.240Z,959.89
2023-01-19T10:08:03.863Z,959.90
2023-01-19T10:09:01.299Z,959.90
2023-01-19T10:10:02.756Z,959.90
2023-01-19T10:11:01.752Z,959.87
2023-01-19T10:12:01.689Z,959.89
2023-01-19T10:13:03.831Z,959.93
2023-01-19T10:14:01.161Z,959.92
2023-01-19T10:15:03.892Z,959.93
2023-01-19T10:16:03.202Z,959.92
2023-01-19T10:17:01.255Z,959.90
2023-01-19T10:18:01.563Z,959.95
2023-01-19T10:19:01.024Z,959.91
2023-01-19T10:20:01.175Z,959.92
2023-01-19T10:21:01.054Z,959.88
2023-01-19T10:22:01.111Z,959.91
2023-01-19T10:23:01.431Z,959.90
2023-01-19T10:24:01.167Z,959.92
2023-01-19T10:25:01.055Z,959.86
2023-01-19T10:26:01.150Z,959.95
2023-01-19T10:27:00.913Z,959.93
2023-01-19T10:28:01.132Z,959.89
2023-01-19T10:29:00.852Z,959.90
2023-01-19T10:30:00.879Z,959.89
2023-01-19T10:31:01.123Z,959.87
2023-01-19T10:32:01.024Z,959.86
2023-01-19T10:33:01.169Z,959.90
2023-01-19T10:34:00.922Z,959.84
2023-01-19T10:35:00.780Z,959.84
2023-01-19T10:36:00.850Z,959.83
2023-01-19T10:37:00.987Z,959.84
2023-01-19T10:38:00.778Z,959.83
2023-01-19T10:39:00.827Z,959.82
2023-01-19T10:40:00.735Z,959.82
2023-01-19T10:41:01.867Z,959.85
2023-01-19T10:42:00.702Z,959.85
2023-01-19T10:43:01.148Z,959.81
2023-01-19T10:44:01.976Z,959.80
2023-01-19T10:45:00.786Z,959.77
2023-01-19T10:46:01.728Z,959.82
2023-01-19T10:47:00.657Z,959.76
2023-01-19T10:48:00.806Z,959.81
2023-01-19T10:49:00.720Z,959.76
2023-01-19T10:50:00.736Z,959.73
2023-01-19T10:51:00.640Z,959.77
2023-01-19T10:52:00.651Z,959.75
2023-01-19T10:53:01.210Z,959.74
2023-01-19T10:54:00.817Z,959.72
2023-01-19T10:55:00.536Z,959.73
2023-01-19T10:56:00.583Z,959.72
2023-01-19T10:57:00.594Z,959.71
2023-01-19T10:58:00.719Z,959.71
2023-01-19T10:59:00.506Z,959.71
2023-01-19T11:00:00.684Z,959.69
2023-01-19T11:01:00.602Z,959.69
2023-01-19T11:02:01.050Z,959.69
2023-01-19T11:03:00.915Z,959.68
2023-01-19T11:04:00.630Z,959.69
2023-01-19T11:05:00.608Z,959.71
2023-01-19T11:06:00.400Z,959.67
2023-01-19T11:07:00.404Z,959.66
2023-01-19T11:08:00.466Z,959.65
2023-01-19T11:09:00.523Z,959.65
2023-01-19T11:10:00.371Z,959.66
2023-01-19T11:11:00.564Z,959.64
2023-01-19T11:12:00.327Z,959.64
2023-01-19T11:13:00.751Z,959.67
2023-01-19T11:14:00.302Z,959.66
2023-01-19T11:15:00.413Z,959.64
2023-01-19T11:16:00.531Z,959.69
2023-01-19T11:17:00.504Z,959.66
2023-01-19T11:18:00.279Z,959.69
2023-01-19T11:19:00.377Z,959.68
2023-01-19T11:20:00.243Z,959.69
2023-01-19T11:21:00.487Z,959.69
2023-01-19T11:22:00.207Z,959.71
2023-01-19T11:23:00.726Z,959.70
2023-01-19T11:24:00.337Z,959.68
2023-01-19T11:25:00.403Z,959.71
2023-01-19T11:26:00.340Z,959.73
2023-01-19T11:27:00.109Z,959.73
2023-01-19T11:28:00.149Z,959.68
2023-01-19T11:29:00.249Z,959.70
2023-01-19T11:30:00.135Z,959.73
2023-01-19T11:31:00.329Z,959.68
2023-01-19T11:32:00.225Z,959.66
2023-01-19T11:33:00.545Z,959.69
2023-01-19T11:34:00.059Z,959.70
2023-01-19T11:35:00.182Z,959.70
2023-01-19T11:36:00.049Z,959.67
2023-01-19T11:37:00.121Z,959.69
2023-01-19T11:37:59.987Z,959.67
2023-01-19T11:39:00.230Z,959.71
2023-01-19T11:40:00.119Z,959.69
2023-01-19T11:41:00.668Z,959.71
2023-01-19T11:41:59.993Z,959.72
2023-01-19T11:43:00.456Z,959.73
2023-01-19T11:43:59.976Z,959.72
2023-01-19T11:45:00.029Z,959.69
2023-01-19T11:45:59.969Z,959.67
2023-01-19T11:47:00.128Z,959.64
2023-01-19T11:48:00.241Z,959.65
2023-01-19T11:49:00.002Z,959.63
2023-01-19T11:50:00.120Z,959.62
2023-01-19T11:50:59.925Z,959.58
2023-01-19T11:51:59.956Z,959.58
2023-01-19T11:52:59.774Z,959.57
2023-01-19T11:53:59.981Z,959.56
2023-01-19T11:54:59.768Z,959.53
2023-01-19T11:55:59.946Z,959.54
2023-01-19T11:56:59.759Z,959.52
2023-01-19T11:58:00.315Z,959.54
2023-01-19T11:58:59.765Z,959.55
2023-01-19T12:00:00.301Z,959.53
2023-01-19T12:00:59.719Z,959.54
2023-01-19T12:01:59.928Z,959.53
2023-01-19T12:02:59.686Z,959.55
2023-01-19T12:03:59.920Z,959.56
2023-01-19T12:04:59.745Z,959.49
2023-01-19T12:05:59.892Z,959.44
2023-01-19T12:06:59.661Z,959.44
2023-01-19T12:08:00.276Z,959.46
2023-01-19T12:08:59.720Z,959.43
2023-01-19T12:09:59.657Z,959.42
2023-01-19T12:10:59.766Z,959.43
2023-01-19T12:11:59.764Z,959.41
2023-01-19T12:12:59.722Z,959.46
2023-01-19T12:13:59.620Z,959.44
2023-01-19T12:14:59.887Z,959.42
2023-01-19T12:15:59.719Z,959.42
2023-01-19T12:16:59.726Z,959.47
2023-01-19T12:18:00.337Z,959.45
2023-01-19T12:18:59.525Z,959.50
2023-01-19T12:19:59.618Z,959.47
2023-01-19T12:21:00.821Z,959.50
2023-01-19T12:21:59.703Z,959.54
2023-01-19T12:22:59.784Z,959.52
2023-01-19T12:23:59.682Z,959.57
2023-01-19T12:24:59.974Z,959.60
2023-01-19T12:25:59.655Z,959.59
2023-01-19T12:26:59.420Z,959.60
2023-01-19T12:28:00.047Z,959.61
2023-01-19T12:29:00.308Z,959.61